createdAt,value
2022-12-03T00:00:00.762Z,101658.50
2022-12-03T00:02:28.710Z,101642.63
2022-12-03T00:04:56.230Z,101646.16
2022-12-03T00:07:23.806Z,101645.25
2022-12-03T00:09:50.952Z,101646.28
2022-12-03T00:12:18.407Z,101650.59
2022-12-03T00:14:45.578Z,101646.13
2022-12-03T00:17:13.022Z,101652.25
2022-12-03T00:19:40.172Z,101646.88
2022-12-03T00:22:07.590Z,101648.94
2022-12-03T00:24:34.831Z,101650.38
2022-12-03T00:27:02.634Z,101643.56
2022-12-03T00:29:29.800Z,101640.78
2022-12-03T00:31:57.259Z,101632.84
2022-12-03T00:34:24.444Z,101640.44
2022-12-03T00:36:51.904Z,101644.56
2022-12-03T00:39:19.093Z,101652.16
2022-12-03T00:41:46.551Z,101641.06
2022-12-03T00:44:13.980Z,101654.19
2022-12-03T00:46:41.718Z,101662.78
2022-12-03T00:49:09.081Z,101661.97
2022-12-03T00:51:36.575Z,101659.13
2022-12-03T00:54:03.908Z,101659.25
2022-12-03T00:56:31.392Z,101652.53
2022-12-03T00:58:58.582Z,101652.16
2022-12-03T01:01:26.108Z,101651.28
2022-12-03T01:03:53.228Z,101656.75
2022-12-03T01:06:21.338Z,101656.72
2022-12-03T01:08:48.550Z,101664.75
2022-12-03T01:11:34.408Z,101648.19
2022-12-03T01:14:01.564Z,101663.75
2022-12-03T01:16:29.044Z,101661.69
2022-12-03T01:18:56.306Z,101661.25
2022-12-03T01:21:23.843Z,101656.84
2022-12-03T01:23:51.036Z,101658.56
2022-12-03T01:26:18.536Z,101660.91
2022-12-03T01:28:45.704Z,101655.72
2022-12-03T01:31:31.841Z,101651.69
2022-12-03T01:34:00.745Z,101657.81
2022-12-03T01:36:28.202Z,101654.38
2022-12-03T01:38:55.446Z,101651.94
2022-12-03T01:41:24.832Z,101650.91
2022-12-03T01:43:54.027Z,101639.63
2022-12-03T01:46:25.811Z,101633.06
2022-12-03T01:48:54.918Z,101628.94
2022-12-03T01:51:22.728Z,101634.28
2022-12-03T01:53:51.502Z,101638.50
2022-12-03T01:56:19.437Z,101635.16
2022-12-03T01:58:47.635Z,101623.88
2022-12-03T02:01:19.082Z,101633.47
2022-12-03T02:03:46.606Z,101640.03
2022-12-03T02:06:20.431Z,101639.53
2022-12-03T02:08:48.625Z,101626.66
2022-12-03T02:11:31.868Z,101630.13
2022-12-03T02:14:06.571Z,101615.03
2022-12-03T02:16:36.543Z,101625.69
2022-12-03T02:19:08.674Z,101630.72
2022-12-03T02:21:40.291Z,101614.38
2022-12-03T02:24:36.783Z,101632.38
2022-12-03T02:27:04.481Z,101625.91
2022-12-03T02:29:31.649Z,101632.47
2022-12-03T02:31:59.241Z,101619.00
2022-12-03T02:34:43.981Z,101624.72
2022-12-03T02:37:17.721Z,101625.09
2022-12-03T02:39:50.440Z,101618.09
2022-12-03T02:42:37.781Z,101611.84
2022-12-03T02:45:28.119Z,101611.00
2022-12-03T02:48:06.068Z,101619.09
2022-12-03T02:50:37.274Z,101607.56
2022-12-03T02:53:09.280Z,101601.59
2022-12-03T02:55:37.693Z,101608.59
2022-12-03T02:58:05.995Z,101605.13
2022-12-03T03:00:35.546Z,101616.38
2022-12-03T03:03:04.605Z,101609.22
2022-12-03T03:05:33.457Z,101617.09
2022-12-03T03:08:01.761Z,101609.81
2022-12-03T03:10:30.718Z,101612.28
2022-12-03T03:12:58.465Z,101604.19
2022-12-03T03:15:25.679Z,101613.50
2022-12-03T03:17:53.315Z,101618.75
2022-12-03T03:20:20.791Z,101610.94
2022-12-03T03:22:48.265Z,101625.53
2022-12-03T03:25:18.734Z,101601.38
2022-12-03T03:27:46.255Z,101593.81
2022-12-03T03:30:14.346Z,101611.22
2022-12-03T03:32:42.907Z,101603.38
2022-12-03T03:35:11.929Z,101617.91
2022-12-03T03:37:39.565Z,101604.13
2022-12-03T03:40:07.899Z,101606.75
2022-12-03T03:42:36.088Z,101598.13
2022-12-03T03:45:03.513Z,101604.19
2022-12-03T03:47:31.041Z,101592.13
2022-12-03T03:49:58.647Z,101585.06
2022-12-03T03:52:26.408Z,101587.41
2022-12-03T03:54:53.821Z,101581.19
2022-12-03T03:57:21.573Z,101588.28
2022-12-03T03:59:48.900Z,101586.34
2022-12-03T04:02:21.153Z,101576.75
2022-12-03T04:04:49.452Z,101571.97
2022-12-03T04:07:17.139Z,101581.53
2022-12-03T04:09:44.641Z,101571.84
2022-12-03T04:12:31.615Z,101589.16
2022-12-03T04:14:59.392Z,101578.34
2022-12-03T04:17:27.257Z,101570.09
2022-12-03T04:19:54.449Z,101573.69
2022-12-03T04:22:39.956Z,101576.28
2022-12-03T04:25:28.528Z,101557.53
2022-12-03T04:28:14.552Z,101567.63
2022-12-03T04:30:41.804Z,101570.31
2022-12-03T04:33:27.943Z,101565.78
2022-12-03T04:35:55.238Z,101565.81
2022-12-03T04:38:22.889Z,101569.88
2022-12-03T04:41:01.823Z,101565.66
2022-12-03T04:43:33.597Z,101571.00
2022-12-03T04:46:01.447Z,101553.72
2022-12-03T04:48:30.477Z,101561.50
2022-12-03T04:50:57.927Z,101566.53
2022-12-03T04:53:25.429Z,101552.88
2022-12-03T04:55:52.551Z,101546.78
2022-12-03T04:58:20.085Z,101563.28
2022-12-03T05:00:47.389Z,101560.53
2022-12-03T05:03:15.026Z,101558.00
2022-12-03T05:05:42.184Z,101556.34
2022-12-03T05:08:09.664Z,101552.91
2022-12-03T05:10:36.926Z,101554.59
2022-12-03T05:13:04.414Z,101566.84
2022-12-03T05:15:31.663Z,101555.41
2022-12-03T05:17:59.106Z,101556.22
2022-12-03T05:20:41.342Z,101548.44
2022-12-03T05:23:10.609Z,101548.28
2022-12-03T05:25:37.875Z,101559.44
2022-12-03T05:28:06.326Z,101559.34
2022-12-03T05:30:34.410Z,101552.75
2022-12-03T05:33:02.036Z,101550.91
2022-12-03T05:35:29.210Z,101534.47
2022-12-03T05:37:56.720Z,101555.06
2022-12-03T05:40:24.041Z,101545.09
2022-12-03T05:42:54.322Z,101549.28
2022-12-03T05:45:26.281Z,101541.84
2022-12-03T05:47:55.380Z,101546.34
2022-12-03T05:50:24.498Z,101548.06
2022-12-03T05:52:52.429Z,101552.09
2022-12-03T05:55:19.738Z,101545.66
2022-12-03T05:57:47.455Z,101543.94
2022-12-03T06:00:18.541Z,101546.09
2022-12-03T06:02:46.322Z,101544.47
2022-12-03T06:05:15.034Z,101544.75
2022-12-03T06:07:43.073Z,101550.63
2022-12-03T06:10:13.687Z,101542.03
2022-12-03T06:12:41.593Z,101556.72
2022-12-03T06:15:09.810Z,101541.44
2022-12-03T06:17:37.363Z,101547.44
2022-12-03T06:20:05.230Z,101556.16
2022-12-03T06:22:32.729Z,101552.63
2022-12-03T06:25:05.099Z,101545.81
2022-12-03T06:27:34.317Z,101550.88
2022-12-03T06:30:01.974Z,101558.53
2022-12-03T06:32:29.452Z,101557.16
2022-12-03T06:34:56.779Z,101543.19
2022-12-03T06:37:24.310Z,101563.34
2022-12-03T06:39:51.517Z,101563.16
2022-12-03T06:42:18.955Z,101557.00
2022-12-03T06:44:46.085Z,101561.38
2022-12-03T06:47:13.517Z,101556.00
2022-12-03T06:49:40.735Z,101563.69
2022-12-03T06:52:08.172Z,101568.63
2022-12-03T06:54:35.549Z,101569.47
2022-12-03T06:57:03.043Z,101569.81
2022-12-03T06:59:34.129Z,101560.91
2022-12-03T07:02:01.750Z,101557.31
2022-12-03T07:04:28.901Z,101556.38
2022-12-03T07:06:56.366Z,101549.94
2022-12-03T07:09:23.598Z,101549.63
2022-12-03T07:11:51.044Z,101557.50
2022-12-03T07:14:18.216Z,101562.94
2022-12-03T07:16:45.955Z,101555.16
2022-12-03T07:19:13.454Z,101561.25
2022-12-03T07:21:41.013Z,101543.56
2022-12-03T07:24:08.894Z,101551.34
2022-12-03T07:26:36.470Z,101545.94
2022-12-03T07:29:03.817Z,101553.38
2022-12-03T07:31:31.445Z,101542.88
2022-12-03T07:33:58.679Z,101550.50
2022-12-03T07:36:26.483Z,101543.19
2022-12-03T07:38:53.864Z,101551.66
2022-12-03T07:41:21.659Z,101555.69
2022-12-03T07:43:49.321Z,101548.75
2022-12-03T07:46:17.529Z,101549.69
2022-12-03T07:48:44.749Z,101550.66
2022-12-03T07:51:15.168Z,101537.25
2022-12-03T07:53:43.050Z,101542.81
2022-12-03T07:56:11.133Z,101540.09
2022-12-03T07:58:38.305Z,101546.06
2022-12-03T08:01:06.057Z,101535.84
2022-12-03T08:03:33.305Z,101539.16
2022-12-03T08:06:00.997Z,101550.81
2022-12-03T08:08:28.196Z,101536.72
2022-12-03T08:10:55.666Z,101544.00
2022-12-03T08:13:22.910Z,101547.78
2022-12-03T08:15:52.313Z,101544.06
2022-12-03T08:18:22.122Z,101547.06
2022-12-03T08:20:51.570Z,101539.28
2022-12-03T08:23:24.549Z,101554.09
2022-12-03T08:25:53.145Z,101541.06
2022-12-03T08:28:28.153Z,101534.50
2022-12-03T08:31:33.147Z,101546.56
2022-12-03T08:34:13.842Z,101525.97
2022-12-03T08:36:41.390Z,101521.13
2022-12-03T08:39:22.462Z,101533.66
2022-12-03T08:42:16.565Z,101528.28
2022-12-03T08:44:43.782Z,101533.34
2022-12-03T08:47:22.729Z,101539.94
2022-12-03T08:50:25.380Z,101537.94
2022-12-03T08:52:54.908Z,101521.53
2022-12-03T08:55:39.219Z,101533.72
2022-12-03T08:58:21.922Z,101534.34
2022-12-03T09:00:54.956Z,101524.84
2022-12-03T09:03:22.522Z,101513.66
2022-12-03T09:05:49.696Z,101525.13
2022-12-03T09:08:17.322Z,101531.84
2022-12-03T09:10:44.549Z,101522.44
2022-12-03T09:13:12.001Z,101518.06
2022-12-03T09:15:39.166Z,101514.13
2022-12-03T09:18:06.733Z,101526.31
2022-12-03T09:20:33.877Z,101535.13
2022-12-03T09:23:01.365Z,101515.75
2022-12-03T09:25:28.626Z,101519.81
2022-12-03T09:27:56.153Z,101522.06
2022-12-03T09:30:23.426Z,101514.38
2022-12-03T09:32:50.965Z,101508.66
2022-12-03T09:35:18.144Z,101513.31
2022-12-03T09:37:45.601Z,101505.91
2022-12-03T09:40:13.351Z,101508.53
2022-12-03T09:42:41.363Z,101512.81
2022-12-03T09:45:12.310Z,101500.22
2022-12-03T09:47:43.807Z,101516.72
2022-12-03T09:50:14.490Z,101505.59
2022-12-03T09:52:42.056Z,101503.31
2022-12-03T09:55:17.536Z,101507.00
2022-12-03T09:57:45.059Z,101501.41
2022-12-03T10:00:21.853Z,101496.59
2022-12-03T10:02:51.414Z,101502.22
2022-12-03T10:05:22.551Z,101506.69
2022-12-03T10:07:51.735Z,101499.09
2022-12-03T10:10:24.098Z,101503.66
2022-12-03T10:12:52.569Z,101487.47
2022-12-03T10:15:23.595Z,101495.50
2022-12-03T10:17:53.325Z,101492.84
2022-12-03T10:20:23.876Z,101491.81
2022-12-03T10:22:51.403Z,101479.34
2022-12-03T10:25:21.551Z,101483.34
2022-12-03T10:27:58.848Z,101482.03
2022-12-03T10:30:29.702Z,101489.53
2022-12-03T10:32:59.236Z,101481.63
2022-12-03T10:35:38.544Z,101475.75
2022-12-03T10:38:18.076Z,101481.09
2022-12-03T10:40:46.087Z,101477.63
2022-12-03T10:43:19.522Z,101473.03
2022-12-03T10:45:50.771Z,101474.50
2022-12-03T10:48:21.245Z,101472.34
2022-12-03T10:50:50.522Z,101486.00
2022-12-03T10:53:19.468Z,101468.41
2022-12-03T10:55:48.376Z,101477.91
2022-12-03T10:58:42.375Z,101476.72
2022-12-03T11:01:18.693Z,101467.28
2022-12-03T11:03:47.124Z,101472.88
2022-12-03T11:06:22.887Z,101472.19
2022-12-03T11:08:57.561Z,101465.78
2022-12-03T11:11:29.156Z,101458.22
2022-12-03T11:13:59.178Z,101472.28
2022-12-03T11:16:41.687Z,101468.66
2022-12-03T11:19:20.036Z,101467.53
2022-12-03T11:22:05.524Z,101467.50
2022-12-03T11:24:35.542Z,101453.19
2022-12-03T11:27:02.785Z,101463.94
2022-12-03T11:29:48.636Z,101462.38
2022-12-03T11:32:43.791Z,101450.91
2022-12-03T11:35:38.141Z,101452.88
2022-12-03T11:38:52.416Z,101451.81
2022-12-03T11:41:22.871Z,101449.25
2022-12-03T11:43:53.234Z,101442.34
2022-12-03T11:46:46.573Z,101447.53
2022-12-03T11:49:29.911Z,101432.25
2022-12-03T11:52:00.447Z,101435.00
2022-12-03T11:54:28.097Z,101419.34
2022-12-03T11:56:56.421Z,101430.25
2022-12-03T11:59:23.750Z,101415.81
2022-12-03T12:01:51.393Z,101420.34
2022-12-03T12:04:38.002Z,101429.44
2022-12-03T12:07:05.521Z,101421.31
2022-12-03T12:09:55.349Z,101426.47
2022-12-03T12:12:51.046Z,101419.19
2022-12-03T12:15:43.393Z,101423.34
2022-12-03T12:18:41.631Z,101416.19
2022-12-03T12:21:43.068Z,101417.94
2022-12-03T12:24:40.335Z,101416.50
2022-12-03T12:27:15.961Z,101414.59
2022-12-03T12:29:47.262Z,101408.66
2022-12-03T12:32:17.592Z,101411.38
2022-12-03T12:34:48.801Z,101409.97
2022-12-03T12:37:44.932Z,101403.75
2022-12-03T12:40:16.466Z,101408.78
2022-12-03T12:42:55.207Z,101398.75
2022-12-03T12:45:34.559Z,101403.22
2022-12-03T12:48:05.841Z,101400.31
2022-12-03T12:50:33.763Z,101405.09
2022-12-03T12:53:11.760Z,101400.28
2022-12-03T12:55:39.518Z,101396.09
2022-12-03T12:58:19.678Z,101395.69
2022-12-03T13:00:51.360Z,101391.41
2022-12-03T13:03:21.541Z,101396.31
2022-12-03T13:05:51.167Z,101400.56
2022-12-03T13:08:21.472Z,101392.53
2022-12-03T13:10:51.864Z,101386.53
2022-12-03T13:13:24.833Z,101399.56
2022-12-03T13:16:34.206Z,101392.28
2022-12-03T13:19:02.194Z,101397.59
2022-12-03T13:21:40.998Z,101388.84
2022-12-03T13:24:29.892Z,101387.59
2022-12-03T13:26:59.131Z,101390.00
2022-12-03T13:29:28.196Z,101386.34
2022-12-03T13:31:58.725Z,101376.63
2022-12-03T13:34:31.305Z,101387.03
2022-12-03T13:37:00.670Z,101383.69
2022-12-03T13:39:30.317Z,101394.66
2022-12-03T13:42:29.358Z,101383.38
2022-12-03T13:44:56.601Z,101390.94
2022-12-03T13:47:24.265Z,101394.50
2022-12-03T13:49:58.165Z,101378.81
2022-12-03T13:52:26.053Z,101389.09
2022-12-03T13:54:56.192Z,101383.69
2022-12-03T13:57:23.751Z,101386.34
2022-12-03T13:59:51.020Z,101370.09
2022-12-03T14:02:18.713Z,101378.25
2022-12-03T14:04:46.389Z,101383.53
2022-12-03T14:07:13.825Z,101381.06
2022-12-03T14:09:41.733Z,101386.72
2022-12-03T14:12:27.303Z,101382.31
2022-12-03T14:14:54.727Z,101387.00
2022-12-03T14:17:22.257Z,101379.25
2022-12-03T14:19:49.990Z,101389.91
2022-12-03T14:22:19.355Z,101379.22
2022-12-03T14:24:46.595Z,101374.97
2022-12-03T14:27:14.097Z,101370.59
2022-12-03T14:29:41.248Z,101376.38
2022-12-03T14:32:08.788Z,101366.97
2022-12-03T14:34:36.108Z,101376.38
2022-12-03T14:37:03.615Z,101371.97
2022-12-03T14:39:30.918Z,101373.22
2022-12-03T14:42:13.469Z,101365.69
2022-12-03T14:44:45.151Z,101366.31
2022-12-03T14:47:13.093Z,101369.72
2022-12-03T14:49:40.789Z,101365.41
2022-12-03T14:52:12.209Z,101368.00
2022-12-03T14:54:42.682Z,101356.50
2022-12-03T14:57:15.199Z,101354.81
2022-12-03T14:59:42.816Z,101366.53
2022-12-03T15:02:11.691Z,101356.94
2022-12-03T15:04:40.102Z,101360.47
2022-12-03T15:07:08.487Z,101356.06
2022-12-03T15:09:35.798Z,101368.63
2022-12-03T15:12:04.318Z,101366.31
2022-12-03T15:14:31.596Z,101357.63
2022-12-03T15:16:59.144Z,101354.16
2022-12-03T15:19:26.509Z,101366.50
2022-12-03T15:21:54.001Z,101364.03
2022-12-03T15:24:21.299Z,101377.50
2022-12-03T15:26:49.693Z,101369.03
2022-12-03T15:29:16.885Z,101357.59
2022-12-03T15:31:44.690Z,101368.72
2022-12-03T15:34:11.893Z,101382.13
2022-12-03T15:36:39.409Z,101373.66
2022-12-03T15:39:06.585Z,101379.66
2022-12-03T15:41:34.088Z,101380.41
2022-12-03T15:44:02.252Z,101368.09
2022-12-03T15:46:31.523Z,101388.19
2022-12-03T15:48:59.696Z,101369.91
2022-12-03T15:51:27.697Z,101375.78
2022-12-03T15:53:54.937Z,101370.81
2022-12-03T15:56:22.399Z,101379.59
2022-12-03T15:58:49.668Z,101367.69
2022-12-03T16:01:18.464Z,101378.97
2022-12-03T16:03:45.884Z,101367.34
2022-12-03T16:06:14.804Z,101367.72
2022-12-03T16:08:42.231Z,101370.25
2022-12-03T16:11:09.829Z,101371.00
2022-12-03T16:13:37.082Z,101376.38
2022-12-03T16:16:04.858Z,101381.53
2022-12-03T16:18:32.261Z,101372.97
2022-12-03T16:20:59.726Z,101370.16
2022-12-03T16:23:26.935Z,101379.81
2022-12-03T16:25:54.586Z,101369.31
2022-12-03T16:28:21.875Z,101370.25
2022-12-03T16:30:49.416Z,101376.06
2022-12-03T16:33:16.699Z,101368.41
2022-12-03T16:35:44.687Z,101375.47
2022-12-03T16:38:11.860Z,101384.25
2022-12-03T16:40:39.393Z,101364.94
2022-12-03T16:43:08.467Z,101363.94
2022-12-03T16:46:01.879Z,101374.41
2022-12-03T16:48:30.101Z,101371.97
2022-12-03T16:50:57.608Z,101377.97
2022-12-03T16:53:25.734Z,101373.53
2022-12-03T16:55:53.359Z,101372.59
2022-12-03T16:58:21.546Z,101374.00
2022-12-03T17:00:50.229Z,101374.34
2022-12-03T17:03:18.019Z,101372.59
2022-12-03T17:05:46.576Z,101371.72
2022-12-03T17:08:14.649Z,101381.25
2022-12-03T17:10:42.956Z,101374.16
2022-12-03T17:13:10.795Z,101369.06
2022-12-03T17:15:39.734Z,101370.75
2022-12-03T17:18:08.267Z,101364.69
2022-12-03T17:20:35.996Z,101379.41
2022-12-03T17:23:03.872Z,101373.66
2022-12-03T17:25:31.464Z,101377.03
2022-12-03T17:28:13.792Z,101366.47
2022-12-03T17:30:41.394Z,101377.81
2022-12-03T17:33:08.539Z,101376.91
2022-12-03T17:35:36.827Z,101379.53
2022-12-03T17:38:04.031Z,101381.31
2022-12-03T17:40:31.552Z,101377.84
2022-12-03T17:42:58.730Z,101377.81
2022-12-03T17:45:26.753Z,101381.25
2022-12-03T17:47:53.930Z,101381.34
2022-12-03T17:50:21.440Z,101374.53
2022-12-03T17:52:48.614Z,101391.97
2022-12-03T17:55:23.911Z,101379.50
2022-12-03T17:57:53.603Z,101371.53
2022-12-03T18:00:21.210Z,101381.91
2022-12-03T18:02:48.491Z,101381.28
2022-12-03T18:05:16.142Z,101374.53
2022-12-03T18:07:43.449Z,101368.25
2022-12-03T18:10:11.908Z,101386.53
2022-12-03T18:12:39.224Z,101381.97
2022-12-03T18:15:07.360Z,101386.50
2022-12-03T18:17:34.593Z,101383.78
2022-12-03T18:20:02.611Z,101377.81
2022-12-03T18:22:30.897Z,101376.56
2022-12-03T18:24:58.595Z,101367.97
2022-12-03T18:27:26.001Z,101367.88
2022-12-03T18:29:53.650Z,101369.78
2022-12-03T18:32:28.753Z,101367.16
2022-12-03T18:34:58.040Z,101370.50
2022-12-03T18:37:28.370Z,101367.13
2022-12-03T18:39:57.899Z,101372.59
2022-12-03T18:42:26.141Z,101371.53
2022-12-03T18:44:55.781Z,101379.06
2022-12-03T18:47:27.093Z,101370.09
2022-12-03T18:49:55.592Z,101375.16
2022-12-03T18:52:25.004Z,101369.09
2022-12-03T18:54:53.014Z,101365.34
2022-12-03T18:57:20.233Z,101381.09
2022-12-03T18:59:47.781Z,101376.81
2022-12-03T19:02:53.798Z,101374.69
2022-12-03T19:05:05.594Z,101382.03
2022-12-03T19:07:32.812Z,101381.69
2022-12-03T19:10:00.314Z,101377.19
2022-12-03T19:12:27.636Z,101378.44
2022-12-03T19:14:55.244Z,101390.75
2022-12-03T19:17:22.525Z,101396.66
2022-12-03T19:19:50.134Z,101388.59
2022-12-03T19:22:17.446Z,101398.16
2022-12-03T19:24:45.104Z,101400.84
2022-12-03T19:27:12.338Z,101400.09
2022-12-03T19:29:40.013Z,101403.81
2022-12-03T19:32:07.221Z,101395.19
2022-12-03T19:34:35.114Z,101404.00
2022-12-03T19:37:02.282Z,101385.16
2022-12-03T19:39:29.783Z,101402.56
2022-12-03T19:41:56.966Z,101379.66
2022-12-03T19:44:24.540Z,101388.56
2022-12-03T19:46:51.798Z,101386.06
2022-12-03T19:49:21.370Z,101388.53
2022-12-03T19:51:49.091Z,101388.44
2022-12-03T19:54:17.758Z,101401.69
2022-12-03T19:56:44.984Z,101389.94
2022-12-03T19:59:13.603Z,101393.47
2022-12-03T20:01:43.192Z,101401.28
2022-12-03T20:04:12.863Z,101398.53
2022-12-03T20:06:40.163Z,101399.44
2022-12-03T20:09:13.512Z,101392.22
2022-12-03T20:11:42.009Z,101393.19
2022-12-03T20:14:12.083Z,101396.00
2022-12-03T20:16:39.921Z,101396.50
2022-12-03T20:19:10.694Z,101393.06
2022-12-03T20:21:39.364Z,101388.31
2022-12-03T20:24:08.072Z,101386.50
2022-12-03T20:26:35.347Z,101380.53
2022-12-03T20:29:02.821Z,101395.09
2022-12-03T20:31:31.546Z,101390.66
2022-12-03T20:34:01.732Z,101380.19
2022-12-03T20:36:31.032Z,101392.75
2022-12-03T20:39:02.607Z,101392.44
2022-12-03T20:41:30.048Z,101396.59
2022-12-03T20:43:57.551Z,101397.44
2022-12-03T20:46:27.332Z,101382.72
2022-12-03T20:48:56.073Z,101386.66
2022-12-03T20:51:26.752Z,101371.69
2022-12-03T20:53:54.631Z,101366.56
2022-12-03T20:56:28.168Z,101376.81
2022-12-03T20:58:55.680Z,101379.81
2022-12-03T21:01:26.493Z,101383.91
2022-12-03T21:03:56.152Z,101383.88
2022-12-03T21:06:26.285Z,101375.44
2022-12-03T21:08:54.999Z,101373.56
2022-12-03T21:11:25.011Z,101389.94
2022-12-03T21:13:54.387Z,101380.88
2022-12-03T21:16:45.507Z,101374.75
2022-12-03T21:19:12.511Z,101379.53
2022-12-03T21:21:39.708Z,101386.72
2022-12-03T21:24:07.618Z,101381.22
2022-12-03T21:26:34.843Z,101366.03
2022-12-03T21:29:02.296Z,101385.34
2022-12-03T21:31:31.615Z,101372.03
2022-12-03T21:33:59.223Z,101374.47
2022-12-03T21:36:26.413Z,101377.09
2022-12-03T21:38:53.848Z,101375.06
2022-12-03T21:41:21.052Z,101383.50
2022-12-03T21:43:48.532Z,101383.69
2022-12-03T21:47:10.775Z,101389.00
2022-12-03T21:49:05.007Z,101387.09
2022-12-03T21:51:32.202Z,101390.28
2022-12-03T21:53:59.691Z,101388.88
2022-12-03T21:56:27.144Z,101378.28
2022-12-03T21:58:54.903Z,101392.22
2022-12-03T22:01:24.174Z,101388.00
2022-12-03T22:03:52.043Z,101385.38
2022-12-03T22:06:19.811Z,101382.91
2022-12-03T22:08:47.633Z,101390.50
2022-12-03T22:11:18.130Z,101388.66
2022-12-03T22:13:46.175Z,101397.41
2022-12-03T22:16:15.827Z,101384.25
2022-12-03T22:18:43.771Z,101388.97
2022-12-03T22:21:13.764Z,101396.13
2022-12-03T22:23:41.476Z,101380.19
2022-12-03T22:26:11.946Z,101387.66
2022-12-03T22:28:43.359Z,101387.13
2022-12-03T22:31:10.942Z,101388.03
2022-12-03T22:33:39.336Z,101395.66
2022-12-03T22:36:13.376Z,101395.56
2022-12-03T22:38:45.769Z,101400.16
2022-12-03T22:41:14.349Z,101384.94
2022-12-03T22:43:41.885Z,101378.28
2022-12-03T22:46:13.336Z,101382.47
2022-12-03T22:48:42.858Z,101376.16
2022-12-03T22:51:13.986Z,101392.66
2022-12-03T22:53:41.532Z,101384.00
2022-12-03T22:56:09.029Z,101391.63
2022-12-03T22:58:38.633Z,101380.47
2022-12-03T23:01:06.811Z,101379.72
2022-12-03T23:03:34.441Z,101394.53
2022-12-03T23:06:01.674Z,101378.81
2022-12-03T23:08:29.134Z,101377.25
2022-12-03T23:11:01.878Z,101383.16
2022-12-03T23:13:30.750Z,101373.53
2022-12-03T23:15:58.384Z,101359.75
2022-12-03T23:18:26.060Z,101374.25
2022-12-03T23:20:55.555Z,101375.09
2022-12-03T23:23:25.799Z,101378.56
2022-12-03T23:26:12.498Z,101380.28
2022-12-03T23:28:41.455Z,101374.81
2022-12-03T23:31:26.891Z,101361.63
2022-12-03T23:33:55.925Z,101375.69
2022-12-03T23:36:24.801Z,101365.78
2022-12-03T23:38:52.323Z,101362.91
2022-12-03T23:41:21.504Z,101357.22
2022-12-03T23:43:49.148Z,101358.53
2022-12-03T23:46:22.201Z,101372.44
2022-12-03T23:48:51.164Z,101371.53
2022-12-03T23:51:21.921Z,101374.56
2022-12-03T23:53:49.825Z,101372.31
2022-12-03T23:56:19.669Z,101374.72
2022-12-03T23:58:47.762Z,101384.44
